Time;durP1;ratioP1;P1;durP2;ratioP2;P2;SDS_P1;SDS_P2;PMS_P1;PMS_P2;Temp;Humidity;BMP_temperature;BMP_pressure;BME280_temperature;BME280_humidity;BME280_pressure;Samples;Min_cycle;Max_cycle;Signal;HPM_P1;HPM_P2
2021/01/07 00:00:21;;;;;;;29.30;19.75;;;;;;;11.03;67.40;93511.06;5035013;28;20110;-77
2021/01/07 00:02:47;;;;;;;63.22;35.83;;;;;;;11.01;67.40;93504.50;5049308;28;20118;-77
2021/01/07 00:05:13;;;;;;;27.98;20.23;;;;;;;11.04;67.31;93517.16;5048320;28;20045;-76
2021/01/07 00:07:38;;;;;;;27.50;20.13;;;;;;;10.94;67.59;93494.34;5053027;28;20485;-76
2021/01/07 00:10:05;;;;;;;25.45;19.70;;;;;;;11.02;67.97;93487.56;5051139;28;20036;-76
2021/01/07 00:12:31;;;;;;;32.95;21.63;;;;;;;10.94;68.32;93490.94;5042356;28;20086;-76
2021/01/07 00:14:56;;;;;;;29.45;21.27;;;;;;;10.93;67.77;93499.94;5051356;28;20040;-76
2021/01/07 00:17:22;;;;;;;26.48;20.23;;;;;;;10.92;67.39;93501.78;5043473;28;20076;-76
2021/01/07 00:19:47;;;;;;;26.02;18.55;;;;;;;10.82;67.01;93492.22;5050479;28;20029;-75
2021/01/07 00:22:13;;;;;;;33.22;21.08;;;;;;;10.85;66.87;93488.97;5048543;28;20562;-76
2021/01/07 00:24:38;;;;;;;29.60;20.58;;;;;;;10.80;67.43;93478.50;5045889;28;20080;-76
2021/01/07 00:27:04;;;;;;;21.48;15.15;;;;;;;10.72;67.36;93484.50;5048923;28;21444;-77
2021/01/07 00:29:29;;;;;;;21.63;15.35;;;;;;;10.68;66.95;93486.16;5045869;28;20033;-77
2021/01/07 00:31:55;;;;;;;21.55;15.13;;;;;;;10.69;66.69;93482.47;5043727;28;20063;-77
2021/01/07 00:34:21;;;;;;;30.27;22.27;;;;;;;10.70;66.80;93496.47;5047902;28;20020;-77
2021/01/07 00:36:53;;;;;;;25.33;20.05;;;;;;;10.62;67.21;93490.00;5045946;28;20033;-77
2021/01/07 00:39:18;;;;;;;26.48;19.02;;;;;;;10.56;67.11;93475.31;5046976;28;20041;-77
2021/01/07 00:41:43;;;;;;;19.63;14.27;;;;;;;10.48;67.46;93499.00;5048160;28;20545;-77
2021/01/07 00:44:10;;;;;;;24.08;15.02;;;;;;;10.43;67.77;93498.03;5043989;28;20060;-77
2021/01/07 00:46:36;;;;;;;26.23;16.45;;;;;;;10.35;67.55;93490.03;5039695;28;20044;-77
2021/01/07 00:49:01;;;;;;;23.10;16.30;;;;;;;10.40;68.00;93495.22;5045290;28;20073;-77
2021/01/07 00:51:31;;;;;;;22.38;15.88;;;;;;;10.40;68.14;93498.63;5046534;28;20394;-77
2021/01/07 00:53:56;;;;;;;24.08;16.77;;;;;;;10.46;68.42;93499.28;5044054;28;20505;-77
2021/01/07 00:56:22;;;;;;;21.55;15.07;;;;;;;10.41;67.95;93494.09;5046011;28;20056;-77
2021/01/07 00:58:47;;;;;;;21.80;14.63;;;;;;;10.33;66.95;93486.88;5049873;28;20025;-77
2021/01/07 01:01:12;;;;;;;21.42;14.45;;;;;;;10.35;67.80;93492.66;5049426;28;20127;-77
2021/01/07 01:03:38;;;;;;;19.92;14.35;;;;;;;10.38;67.17;93490.22;5045497;28;20049;-77
2021/01/07 01:06:03;;;;;;;21.80;16.13;;;;;;;10.38;67.97;93455.88;5046797;28;20037;-77
2021/01/07 01:08:29;;;;;;;20.80;15.10;;;;;;;10.45;66.93;93489.81;5048678;28;20477;-77
2021/01/07 01:10:54;;;;;;;21.02;14.57;;;;;;;10.51;66.92;93461.41;5046497;28;20029;-77
2021/01/07 01:13:20;;;;;;;24.15;16.48;;;;;;;10.50;67.22;93481.00;5049190;28;20016;-77
2021/01/07 01:15:45;;;;;;;24.10;17.40;;;;;;;10.54;67.92;93477.47;5044739;28;20166;-77
2021/01/07 01:18:11;;;;;;;20.90;16.63;;;;;;;10.45;68.07;93470.56;5028213;28;20041;-77
2021/01/07 01:20:37;;;;;;;22.08;16.15;;;;;;;10.43;68.07;93450.50;5047498;28;20037;-76
2021/01/07 01:23:06;;;;;;;22.25;17.15;;;;;;;10.43;68.45;93465.56;5043952;28;20564;-77
2021/01/07 01:25:31;;;;;;;22.75;16.50;;;;;;;10.44;68.63;93459.19;5051768;28;20120;-77
2021/01/07 01:27:58;;;;;;;21.65;15.98;;;;;;;10.38;68.63;93447.94;5046072;28;20113;-77
2021/01/07 01:30:23;;;;;;;26.05;18.08;;;;;;;10.41;68.35;93441.28;5032018;28;20049;-77
2021/01/07 01:32:49;;;;;;;23.50;18.40;;;;;;;10.45;68.60;93452.06;5043177;28;20037;-77
2021/01/07 01:35:14;;;;;;;28.83;21.40;;;;;;;10.40;68.44;93429.97;5026407;28;20098;-77
2021/01/07 01:37:41;;;;;;;28.15;19.15;;;;;;;10.34;68.72;93451.47;5030358;28;20064;-77
2021/01/07 01:40:12;;;;;;;26.77;19.52;;;;;;;10.31;68.42;93439.63;5025018;28;20041;-77
2021/01/07 01:42:37;;;;;;;22.73;17.52;;;;;;;10.33;68.73;93420.84;5025511;28;21264;-77
2021/01/07 01:45:04;;;;;;;24.52;18.42;;;;;;;10.36;68.32;93438.78;5026993;28;20034;-77
2021/01/07 01:47:29;;;;;;;24.52;18.88;;;;;;;10.38;68.54;93426.81;5030901;28;20106;-77
2021/01/07 01:49:55;;;;;;;28.30;19.65;;;;;;;10.30;68.96;93418.81;5030377;28;20037;-77
2021/01/07 01:52:23;;;;;;;18.80;11.23;;;;;;;10.21;68.80;93402.09;5032767;28;20032;-77
2021/01/07 01:54:49;;;;;;;8.20;5.07;;;;;;;10.35;67.63;93406.28;5031219;28;20041;-77
2021/01/07 01:57:16;;;;;;;4.88;3.88;;;;;;;10.45;68.66;93389.44;5032642;28;20052;-76
2021/01/07 01:59:42;;;;;;;2.30;2.05;;;;;;;10.56;66.98;93374.91;5030025;28;20340;-75
2021/01/07 02:02:12;;;;;;;2.20;2.00;;;;;;;10.75;66.90;93372.91;5029664;28;20060;-76
2021/01/07 02:04:37;;;;;;;1.70;1.20;;;;;;;10.89;66.68;93361.50;5035003;28;20017;-76
2021/01/07 02:07:04;;;;;;;2.22;1.30;;;;;;;10.93;66.27;93357.19;5027408;28;20631;-77
2021/01/07 02:09:30;;;;;;;1.40;1.30;;;;;;;11.11;65.06;93356.19;5029138;28;20044;-76
2021/01/07 02:11:59;;;;;;;1.00;1.00;;;;;;;11.08;63.45;93352.31;5027432;28;20033;-77
2021/01/07 02:14:27;;;;;;;1.10;1.00;;;;;;;11.27;62.82;93338.88;5046873;28;20500;-77
2021/01/07 02:16:56;;;;;;;2.08;1.10;;;;;;;11.40;62.21;93335.34;5032290;28;20029;-76
2021/01/07 02:19:22;;;;;;;0.80;0.80;;;;;;;11.44;61.11;93322.28;5033703;28;20021;-77
2021/01/07 02:21:48;;;;;;;1.10;1.00;;;;;;;11.57;61.81;93308.19;5027803;28;21431;-77
2021/01/07 02:24:13;;;;;;;1.35;0.90;;;;;;;11.62;61.24;93306.19;5032858;28;20037;-76
2021/01/07 02:26:41;;;;;;;1.13;1.00;;;;;;;11.67;60.40;93315.88;5029886;28;20103;-77
2021/01/07 02:29:07;;;;;;;0.80;0.80;;;;;;;11.76;60.75;93310.63;5030875;28;20030;-77
2021/01/07 02:31:32;;;;;;;0.90;0.90;;;;;;;11.78;60.28;93292.59;5029371;28;20038;-77
2021/01/07 02:33:58;;;;;;;1.27;1.10;;;;;;;11.81;60.06;93299.91;5032647;28;20448;-77
2021/01/07 02:36:23;;;;;;;0.85;0.82;;;;;;;11.86;59.95;93311.13;5028120;28;20533;-76
2021/01/07 02:38:49;;;;;;;2.13;0.80;;;;;;;11.82;59.20;93310.19;5027948;28;20246;-76
2021/01/07 02:41:15;;;;;;;0.90;0.90;;;;;;;11.98;59.84;93310.50;5028913;28;20398;-76
2021/01/07 02:43:40;;;;;;;1.55;0.70;;;;;;;11.88;59.82;93306.28;5029915;28;20029;-77
2021/01/07 02:46:06;;;;;;;0.73;0.73;;;;;;;11.91;59.28;93304.91;5029834;28;20033;-78
2021/01/07 02:48:32;;;;;;;1.20;0.70;;;;;;;11.85;58.79;93304.25;5029974;28;20036;-77
2021/01/07 02:50:57;;;;;;;1.48;0.90;;;;;;;11.68;57.53;93325.34;5033723;28;20040;-78
2021/01/07 02:53:23;;;;;;;0.80;0.80;;;;;;;11.80;57.85;93319.50;5028839;28;20068;-77
2021/01/07 02:55:48;;;;;;;0.80;0.80;;;;;;;11.84;57.64;93296.63;5029768;28;20032;-78
2021/01/07 02:58:14;;;;;;;0.80;0.70;;;;;;;11.87;58.40;93296.03;5028533;28;20545;-77
2021/01/07 03:00:39;;;;;;;1.08;0.88;;;;;;;11.70;57.24;93286.91;5029608;28;20176;-76
2021/01/07 03:03:06;;;;;;;0.70;0.70;;;;;;;11.82;57.52;93289.00;5030827;28;20037;-77
2021/01/07 03:05:32;;;;;;;0.70;0.70;;;;;;;11.87;57.70;93280.94;5044385;28;20128;-77
2021/01/07 03:07:57;;;;;;;1.67;0.90;;;;;;;11.82;57.99;93293.53;5030106;28;20101;-77
2021/01/07 03:10:23;;;;;;;1.77;0.98;;;;;;;11.85;57.72;93292.91;5035474;28;20113;-77
2021/01/07 03:12:48;;;;;;;0.98;0.80;;;;;;;11.86;57.75;93310.34;5032044;28;20076;-77
2021/01/07 03:15:14;;;;;;;0.85;0.80;;;;;;;11.92;57.50;93322.34;5025630;28;20034;-78
2021/01/07 03:17:39;;;;;;;1.70;0.90;;;;;;;11.86;56.10;93323.59;5028924;28;20067;-77
2021/01/07 03:20:11;;;;;;;0.80;0.80;;;;;;;12.09;56.17;93330.34;5025191;28;20017;-76
2021/01/07 03:22:37;;;;;;;1.58;1.00;;;;;;;12.17;55.75;93326.91;5030364;28;20032;-76
2021/01/07 03:25:03;;;;;;;1.20;1.10;;;;;;;12.31;56.39;93316.97;5028642;28;20045;-78
2021/01/07 03:27:28;;;;;;;2.20;1.00;;;;;;;12.19;56.08;93311.50;5025729;28;20098;-78
2021/01/07 03:29:54;;;;;;;3.08;1.30;;;;;;;12.29;54.74;93321.81;5033223;28;20524;-77
2021/01/07 03:32:21;;;;;;;1.02;0.93;;;;;;;12.33;55.29;93321.94;5050440;28;20037;-78
2021/01/07 03:34:47;;;;;;;1.67;1.13;;;;;;;12.20;54.91;93321.00;5050965;28;20115;-77
2021/01/07 03:37:13;;;;;;;1.58;1.42;;;;;;;12.35;54.69;93309.97;5046203;28;20041;-78
2021/01/07 03:39:38;;;;;;;1.77;1.40;;;;;;;12.25;54.66;93297.03;5049388;28;20125;-78
2021/01/07 03:42:04;;;;;;;2.50;1.45;;;;;;;12.34;54.96;93300.47;5049658;28;20052;-77
2021/01/07 03:44:29;;;;;;;1.27;1.20;;;;;;;12.30;54.91;93304.81;5048161;28;20072;-77
2021/01/07 03:46:55;;;;;;;1.30;1.20;;;;;;;12.40;55.20;93293.91;5031227;28;20044;-77
2021/01/07 03:49:20;;;;;;;1.35;1.15;;;;;;;12.36;54.66;93298.28;5053639;28;21023;-78
2021/01/07 03:51:46;;;;;;;1.27;1.17;;;;;;;12.30;54.21;93288.16;5049748;28;20109;-77
2021/01/07 03:54:11;;;;;;;1.30;1.20;;;;;;;12.32;53.09;93307.91;5049639;28;20049;-77
2021/01/07 03:56:39;;;;;;;1.67;1.17;;;;;;;12.37;52.77;93305.13;5053534;28;21139;-77
2021/01/07 03:59:05;;;;;;;1.30;1.20;;;;;;;12.35;52.89;93294.06;5037019;28;20047;-77
2021/01/07 04:01:30;;;;;;;1.15;1.10;;;;;;;12.43;53.04;93298.59;5055910;28;20432;-78
2021/01/07 04:03:55;;;;;;;1.10;1.10;;;;;;;12.43;52.72;93295.94;5044979;28;20554;-78
2021/01/07 04:06:21;;;;;;;1.63;1.40;;;;;;;12.33;52.19;93277.69;5034640;28;20551;-79
2021/01/07 04:08:47;;;;;;;2.25;1.10;;;;;;;12.39;52.59;93297.66;5045357;28;20042;-77
2021/01/07 04:11:12;;;;;;;4.05;1.08;;;;;;;12.35;52.81;93272.88;5035413;28;20060;-77
2021/01/07 04:13:38;;;;;;;1.40;1.20;;;;;;;12.34;51.94;93292.50;5051216;28;20028;-77
2021/01/07 04:16:04;;;;;;;1.65;1.23;;;;;;;12.45;51.89;93280.50;5045506;28;20539;-78
2021/01/07 04:18:30;;;;;;;1.00;1.00;;;;;;;12.41;51.23;93290.16;5045176;28;20511;-77
2021/01/07 04:20:55;;;;;;;1.85;1.33;;;;;;;12.47;51.85;93288.13;5045815;28;20044;-78
2021/01/07 04:23:21;;;;;;;1.25;1.15;;;;;;;12.44;50.70;93294.84;5030502;28;20059;-77
2021/01/07 04:25:46;;;;;;;2.50;1.27;;;;;;;12.44;50.96;93286.13;5048582;28;20033;-77
2021/01/07 04:28:12;;;;;;;1.17;0.90;;;;;;;12.47;50.62;93310.13;5047967;28;20032;-78
2021/01/07 04:30:37;;;;;;;1.42;1.30;;;;;;;12.45;50.67;93311.53;5038311;28;20045;-78
2021/01/07 04:33:03;;;;;;;1.27;1.23;;;;;;;12.53;51.00;93319.47;5049755;28;21270;-77
2021/01/07 04:35:28;;;;;;;1.33;1.05;;;;;;;12.61;50.42;93317.16;5044052;28;20591;-76
2021/01/07 04:37:54;;;;;;;1.33;1.20;;;;;;;12.65;50.35;93315.44;5044567;28;20520;-76
2021/01/07 04:40:19;;;;;;;1.02;1.00;;;;;;;12.80;50.00;93328.22;5051141;28;20020;-77
2021/01/07 04:42:45;;;;;;;1.00;1.00;;;;;;;12.61;49.35;93309.19;5019699;28;20044;-78
2021/01/07 04:45:12;;;;;;;0.98;0.98;;;;;;;12.69;50.00;93319.00;5023750;28;20055;-78
2021/01/07 04:47:39;;;;;;;0.90;0.90;;;;;;;12.69;49.19;93309.19;5044169;28;20041;-77
2021/01/07 04:50:05;;;;;;;0.90;0.90;;;;;;;12.87;49.78;93313.38;5049772;28;20017;-75
2021/01/07 04:52:31;;;;;;;1.02;0.98;;;;;;;12.83;50.24;93322.28;5047184;28;20507;-77
2021/01/07 04:54:57;;;;;;;0.93;0.90;;;;;;;12.82;49.56;93310.09;5048377;28;20040;-78
2021/01/07 04:57:23;;;;;;;1.05;0.98;;;;;;;12.69;49.22;93303.88;5044481;28;20681;-77
2021/01/07 04:59:49;;;;;;;1.80;1.00;;;;;;;12.81;48.99;93325.22;5047856;28;20059;-78
2021/01/07 05:02:14;;;;;;;1.20;1.10;;;;;;;12.80;48.89;93313.09;5045547;28;20042;-77
2021/01/07 05:04:51;;;;;;;1.20;1.10;;;;;;;12.73;49.56;93322.59;5048550;28;20413;-76
2021/01/07 05:07:21;;;;;;;2.25;1.38;;;;;;;12.76;49.65;93333.34;5031474;28;20039;-77
2021/01/07 05:09:47;;;;;;;1.33;1.20;;;;;;;12.75;50.05;93312.47;5043479;28;20037;-77
2021/01/07 05:12:14;;;;;;;1.55;1.38;;;;;;;12.65;50.22;93331.34;5024227;28;20029;-77
2021/01/07 05:14:44;;;;;;;1.70;1.60;;;;;;;12.69;50.53;93322.44;5024457;28;20055;-76
2021/01/07 05:17:13;;;;;;;1.50;1.40;;;;;;;12.81;50.05;93343.00;5029092;28;20796;-75
2021/01/07 05:19:39;;;;;;;2.13;1.20;;;;;;;12.81;50.05;93346.44;5048128;28;20037;-77
2021/01/07 05:22:06;;;;;;;1.40;1.30;;;;;;;12.70;50.09;93323.22;5047940;28;20032;-75
2021/01/07 05:24:36;;;;;;;2.72;1.33;;;;;;;12.80;50.10;93354.72;5050376;28;20126;-76
2021/01/07 05:27:09;;;;;;;1.40;1.30;;;;;;;12.78;50.10;93346.31;5035555;28;20041;-78
2021/01/07 05:29:42;;;;;;;2.40;1.60;;;;;;;12.79;50.07;93353.16;5051316;28;20048;-77
2021/01/07 05:32:09;;;;;;;1.60;1.50;;;;;;;12.83;49.90;93348.78;5046894;28;20048;-76
2021/01/07 05:34:48;;;;;;;4.03;1.50;;;;;;;12.88;49.98;93354.72;5053397;28;20086;-76
2021/01/07 05:37:18;;;;;;;1.30;1.20;;;;;;;12.92;50.20;93354.88;5048421;28;20040;-77
2021/01/07 05:39:47;;;;;;;1.65;1.45;;;;;;;12.91;50.32;93340.03;5048997;28;20041;-76
2021/01/07 05:42:13;;;;;;;1.70;1.30;;;;;;;13.05;49.99;93367.19;5049030;28;20105;-76
2021/01/07 05:44:46;;;;;;;1.70;1.40;;;;;;;13.00;49.71;93338.94;5050521;28;23241;-76
2021/01/07 05:47:28;;;;;;;2.78;1.60;;;;;;;13.12;50.40;93351.59;5030984;28;21163;-76
2021/01/07 05:49:54;;;;;;;1.25;1.25;;;;;;;12.97;49.54;93370.63;5051314;28;20017;-77
2021/01/07 05:52:22;;;;;;;2.10;1.10;;;;;;;13.06;50.05;93358.13;5050837;28;20033;-76
2021/01/07 05:54:52;;;;;;;4.25;1.85;;;;;;;12.99;49.23;93360.50;5048898;28;20501;-77
2021/01/07 05:57:21;;;;;;;1.92;1.10;;;;;;;13.07;49.22;93345.66;5026940;28;20053;-76
2021/01/07 05:59:50;;;;;;;2.58;1.50;;;;;;;13.12;49.85;93348.16;5038647;28;20119;-76
2021/01/07 06:02:17;;;;;;;2.63;1.15;;;;;;;13.03;49.36;93348.94;5046860;28;20048;-77
2021/01/07 06:04:43;;;;;;;1.05;1.05;;;;;;;13.08;49.39;93353.31;5051580;28;20452;-77
2021/01/07 06:07:11;;;;;;;1.35;1.25;;;;;;;12.97;49.44;93355.50;5050151;28;20043;-76
2021/01/07 06:09:37;;;;;;;2.28;1.48;;;;;;;12.87;49.54;93381.53;5047318;28;20051;-76
2021/01/07 06:12:02;;;;;;;1.83;1.20;;;;;;;12.96;49.58;93356.59;5050927;28;20033;-76
2021/01/07 06:14:28;;;;;;;1.30;1.20;;;;;;;13.00;49.65;93359.38;5048906;28;20541;-76
2021/01/07 06:16:56;;;;;;;2.25;1.42;;;;;;;13.10;49.92;93367.00;5048491;28;20036;-77
2021/01/07 06:19:41;;;;;;;2.50;1.45;;;;;;;12.96;49.77;93364.53;5053188;28;20032;-78
2021/01/07 06:22:09;;;;;;;2.10;1.50;;;;;;;13.03;49.76;93361.41;5049730;28;20504;-76
2021/01/07 06:24:39;;;;;;;1.10;1.10;;;;;;;13.03;49.43;93374.69;5046019;28;20044;-76
2021/01/07 06:27:26;;;;;;;1.30;1.20;;;;;;;13.05;48.81;93375.13;5054050;28;20124;-76
2021/01/07 06:29:57;;;;;;;1.30;1.20;;;;;;;13.08;49.37;93371.09;5050446;28;20051;-76
2021/01/07 06:32:23;;;;;;;1.17;1.08;;;;;;;13.15;49.01;93366.88;5048788;28;20040;-76
2021/01/07 06:34:51;;;;;;;2.35;1.40;;;;;;;13.17;49.15;93369.22;5050881;28;20031;-77
2021/01/07 06:37:30;;;;;;;2.75;1.30;;;;;;;13.21;48.87;93368.28;5049808;28;20116;-76
2021/01/07 06:39:58;;;;;;;2.47;1.75;;;;;;;13.26;49.16;93378.75;5045828;28;20563;-76
2021/01/07 06:42:24;;;;;;;4.80;1.73;;;;;;;13.35;49.30;93368.88;5046326;28;20047;-76
2021/01/07 06:44:51;;;;;;;3.30;1.60;;;;;;;13.24;48.93;93380.91;5047730;28;20033;-76
2021/01/07 06:47:18;;;;;;;3.10;1.40;;;;;;;13.23;48.84;93366.13;5046654;28;20067;-76
2021/01/07 06:49:45;;;;;;;3.63;1.90;;;;;;;13.33;48.80;93372.97;5050434;28;20083;-76
2021/01/07 06:52:10;;;;;;;6.68;1.95;;;;;;;13.32;48.98;93380.16;5043962;28;20110;-77
2021/01/07 06:54:39;;;;;;;4.63;2.08;;;;;;;13.15;48.80;93398.72;5046753;28;20131;-76
2021/01/07 06:57:15;;;;;;;1.25;1.25;;;;;;;13.34;49.28;93396.50;5051209;28;20123;-78
2021/01/07 06:59:56;;;;;;;2.08;1.60;;;;;;;13.33;49.12;93372.97;5045008;28;20425;-75
2021/01/07 07:02:21;;;;;;;1.83;1.60;;;;;;;13.42;48.70;93371.84;5045333;28;20054;-76
2021/01/07 07:04:48;;;;;;;3.70;1.70;;;;;;;13.52;48.21;93375.25;5050248;28;20543;-76
2021/01/07 07:07:32;;;;;;;5.68;3.00;;;;;;;13.62;48.28;93390.84;5044936;28;20035;-77
2021/01/07 07:10:17;;;;;;;4.30;1.83;;;;;;;13.65;48.32;93411.44;5046604;28;20048;-76
2021/01/07 07:12:46;;;;;;;2.25;1.63;;;;;;;13.62;48.57;93402.25;5042036;28;20416;-76
2021/01/07 07:15:13;;;;;;;2.72;1.50;;;;;;;13.65;48.25;93403.47;5047852;28;20024;-76
2021/01/07 07:17:40;;;;;;;2.35;1.50;;;;;;;13.70;47.90;93416.59;5021450;28;20143;-76
2021/01/07 07:20:09;;;;;;;1.70;1.45;;;;;;;13.77;47.96;93428.31;5046975;28;20397;-76
2021/01/07 07:22:42;;;;;;;15.55;5.45;;;;;;;13.88;48.63;93437.47;5048135;28;20024;-77
2021/01/07 07:25:08;;;;;;;3.10;1.75;;;;;;;13.73;48.35;93402.69;5045207;28;20071;-76
2021/01/07 07:27:52;;;;;;;3.20;1.80;;;;;;;13.85;48.45;93426.69;5026358;28;20884;-76
2021/01/07 07:30:33;;;;;;;5.32;3.90;;;;;;;13.89;48.22;93431.06;5047067;28;20580;-76
2021/01/07 07:33:00;;;;;;;3.65;2.20;;;;;;;13.91;48.01;93428.09;5042671;28;20049;-76
2021/01/07 07:35:28;;;;;;;4.70;1.70;;;;;;;14.02;47.96;93447.91;5044395;28;20048;-76
2021/01/07 07:37:55;;;;;;;6.00;2.10;;;;;;;14.09;47.82;93421.63;5041551;28;20021;-76
2021/01/07 07:40:35;;;;;;;1.77;1.20;;;;;;;14.04;47.30;93428.97;5051445;28;20048;-76
2021/01/07 07:43:02;;;;;;;3.30;1.67;;;;;;;13.97;47.16;93434.81;5044064;28;20102;-76
2021/01/07 07:45:29;;;;;;;3.08;2.38;;;;;;;14.07;47.74;93439.78;5046206;28;20057;-76
2021/01/07 07:47:55;;;;;;;10.70;5.05;;;;;;;14.07;47.59;93465.56;5047266;28;20083;-76
2021/01/07 07:50:28;;;;;;;8.23;3.03;;;;;;;14.01;47.31;93456.19;5050204;28;20524;-77
2021/01/07 07:53:10;;;;;;;5.35;2.47;;;;;;;14.01;47.36;93480.09;5047430;28;20063;-77
2021/01/07 07:55:36;;;;;;;3.10;1.58;;;;;;;14.03;47.54;93465.41;5052137;28;20043;-78
2021/01/07 07:58:12;;;;;;;31.38;21.52;;;;;;;13.91;46.95;93470.59;5048735;28;20048;-76
2021/01/07 08:00:39;;;;;;;2.60;1.48;;;;;;;13.97;46.56;93466.69;5043742;28;20041;-76
2021/01/07 08:03:04;;;;;;;5.95;3.30;;;;;;;14.00;47.63;93489.16;5050297;28;20111;-76
2021/01/07 08:05:32;;;;;;;4.07;1.65;;;;;;;13.61;49.67;93501.56;5046657;28;20164;-77
2021/01/07 08:07:58;;;;;;;4.38;3.15;;;;;;;13.08;50.50;93504.50;5049358;28;20060;-78
2021/01/07 08:10:25;;;;;;;3.28;1.20;;;;;;;12.82;50.93;93532.84;5050060;28;20028;-76
2021/01/07 08:12:51;;;;;;;2.50;1.48;;;;;;;12.58;50.97;93543.84;5049384;28;20069;-76
2021/01/07 08:15:30;;;;;;;2.05;1.02;;;;;;;12.36;51.17;93584.47;5049596;28;20508;-79
2021/01/07 08:18:12;;;;;;;4.15;1.00;;;;;;;12.10;51.61;93594.13;5046751;28;20489;-75
2021/01/07 08:20:38;;;;;;;1.00;0.90;;;;;;;11.83;51.70;93612.75;5047701;28;20054;-74
2021/01/07 08:23:08;;;;;;;2.78;1.05;;;;;;;11.66;52.24;93630.06;5047027;28;20033;-77
2021/01/07 08:25:33;;;;;;;2.10;1.10;;;;;;;11.57;52.88;93642.44;5050475;28;20352;-76
2021/01/07 08:28:15;;;;;;;3.22;1.20;;;;;;;11.53;53.14;93657.31;5048563;28;20060;-78
2021/01/07 08:30:46;;;;;;;2.42;1.60;;;;;;;11.44;53.22;93659.09;5045544;28;20080;-76
2021/01/07 08:33:15;;;;;;;4.82;2.22;;;;;;;11.33;53.37;93668.34;5047385;28;20028;-77
2021/01/07 08:35:41;;;;;;;2.35;1.77;;;;;;;11.17;53.83;93678.44;5045749;28;20135;-76
2021/01/07 08:38:06;;;;;;;6.32;1.92;;;;;;;11.13;53.95;93688.03;5046336;28;20117;-78
2021/01/07 08:40:32;;;;;;;2.08;1.40;;;;;;;10.99;53.81;93683.81;5053441;28;20119;-75
2021/01/07 08:43:10;;;;;;;1.20;1.10;;;;;;;10.95;53.67;93693.41;5043544;28;20039;-75
2021/01/07 08:45:35;;;;;;;2.22;1.20;;;;;;;10.85;53.53;93686.44;5043001;28;20127;-77
2021/01/07 08:48:05;;;;;;;1.15;1.00;;;;;;;10.74;53.86;93699.06;5046443;28;20036;-77
2021/01/07 08:50:32;;;;;;;2.88;1.05;;;;;;;10.57;54.22;93696.19;5049968;28;20393;-76
2021/01/07 08:52:58;;;;;;;1.33;1.02;;;;;;;10.40;54.74;93690.69;5045179;28;20040;-74
2021/01/07 08:55:49;;;;;;;1.35;0.90;;;;;;;10.30;55.06;93719.91;5051689;28;20028;-75
2021/01/07 08:58:22;;;;;;;1.10;1.00;;;;;;;10.08;55.72;93709.09;5047648;28;20446;-75
2021/01/07 09:00:49;;;;;;;1.58;1.20;;;;;;;10.11;55.42;93711.97;5047867;28;20044;-76
2021/01/07 09:03:15;;;;;;;1.15;0.93;;;;;;;9.99;56.14;93730.88;5036266;28;20052;-75
2021/01/07 09:05:40;;;;;;;1.75;1.10;;;;;;;9.95;56.42;93723.81;5043139;28;20041;-75
2021/01/07 09:08:10;;;;;;;1.25;1.10;;;;;;;9.96;56.46;93720.09;5031732;28;20027;-75
2021/01/07 09:10:36;;;;;;;1.65;1.27;;;;;;;9.97;57.28;93727.72;5035653;28;20031;-76
2021/01/07 09:13:20;;;;;;;1.10;1.00;;;;;;;9.94;57.28;93730.94;5024669;28;20053;-76
2021/01/07 09:15:47;;;;;;;1.73;1.00;;;;;;;9.84;57.62;93711.81;5030803;28;20063;-76
2021/01/07 09:18:13;;;;;;;1.10;1.02;;;;;;;9.86;58.07;93707.84;5034865;28;20138;-75
2021/01/07 09:20:38;;;;;;;1.00;0.85;;;;;;;9.91;57.69;93705.13;5030918;28;20123;-76
2021/01/07 09:23:06;;;;;;;1.02;1.00;;;;;;;9.94;57.83;93686.06;5032891;28;20029;-76
2021/01/07 09:25:31;;;;;;;1.50;0.90;;;;;;;9.98;58.20;93696.84;5033679;28;20029;-77
2021/01/07 09:27:58;;;;;;;1.60;1.00;;;;;;;10.04;57.83;93694.91;5032020;28;20429;-76
2021/01/07 09:30:25;;;;;;;1.63;1.23;;;;;;;10.02;58.39;93698.63;5031839;28;20115;-76
2021/01/07 09:32:51;;;;;;;2.25;1.70;;;;;;;9.87;59.58;93675.06;5034669;28;20037;-76
2021/01/07 09:35:17;;;;;;;1.30;1.20;;;;;;;10.00;58.73;93669.09;5030117;28;20397;-76
2021/01/07 09:37:42;;;;;;;1.63;1.25;;;;;;;9.95;59.12;93676.31;5031570;28;20028;-77
2021/01/07 09:40:08;;;;;;;4.20;1.70;;;;;;;9.94;59.44;93686.06;5029750;28;20076;-76
2021/01/07 09:42:35;;;;;;;2.20;1.50;;;;;;;10.05;59.69;93672.72;5027496;28;20048;-76
2021/01/07 09:45:01;;;;;;;2.25;1.80;;;;;;;10.05;60.05;93670.09;5033064;28;20040;-76
2021/01/07 09:47:27;;;;;;;2.35;1.67;;;;;;;10.16;60.69;93660.97;5032342;28;20083;-76
2021/01/07 09:49:53;;;;;;;1.80;1.70;;;;;;;10.16;60.08;93672.31;5034058;28;20056;-76
2021/01/07 09:52:19;;;;;;;1.42;1.33;;;;;;;10.04;59.50;93669.28;5032654;28;20059;-79
2021/01/07 09:54:45;;;;;;;2.38;2.05;;;;;;;9.91;60.12;93659.47;5031139;28;20036;-76
2021/01/07 09:57:10;;;;;;;1.70;1.60;;;;;;;9.90;60.76;93661.31;5047518;28;20044;-77
2021/01/07 09:59:36;;;;;;;4.10;1.70;;;;;;;9.86;61.13;93655.06;5026879;28;21086;-78
2021/01/07 10:02:07;;;;;;;2.08;1.88;;;;;;;9.94;61.61;93641.19;5028448;28;20022;-77
2021/01/07 10:04:34;;;;;;;2.25;1.75;;;;;;;9.91;61.35;93643.63;5032120;28;20783;-78
2021/01/07 10:07:00;;;;;;;2.67;2.08;;;;;;;10.03;61.34;93641.31;5033283;28;20076;-77
2021/01/07 10:09:26;;;;;;;4.22;2.50;;;;;;;10.02;61.71;93648.44;5033301;28;20132;-77
2021/01/07 10:11:53;;;;;;;1.70;1.50;;;;;;;10.13;60.78;93656.22;5029284;28;20151;-79
2021/01/07 10:14:20;;;;;;;1.70;1.60;;;;;;;9.91;60.53;93662.91;5033684;28;20573;-77
2021/01/07 10:16:56;;;;;;;2.00;1.73;;;;;;;9.87;61.28;93661.88;5050148;28;20102;-75
2021/01/07 10:19:25;;;;;;;2.60;1.67;;;;;;;9.83;60.71;93642.41;5049334;28;20079;-76
2021/01/07 10:22:12;;;;;;;3.08;1.92;;;;;;;9.86;61.29;93654.28;5045879;28;20044;-76
2021/01/07 10:24:46;;;;;;;6.63;4.55;;;;;;;9.82;60.82;93646.13;5044225;28;20102;-77
2021/01/07 10:27:14;;;;;;;14.98;10.15;;;;;;;9.76;60.93;93657.84;5050750;28;20516;-76
2021/01/07 10:29:40;;;;;;;6.75;5.72;;;;;;;9.75;60.74;93652.84;5049889;28;20045;-78
2021/01/07 10:32:06;;;;;;;14.43;12.90;;;;;;;9.71;60.96;93655.28;5052490;28;20070;-77
2021/01/07 10:34:38;;;;;;;2.60;2.30;;;;;;;9.57;61.25;93641.22;5033978;28;20032;-77
2021/01/07 10:37:05;;;;;;;3.08;2.40;;;;;;;9.57;61.87;93657.06;5051969;28;20080;-76
2021/01/07 10:39:35;;;;;;;3.85;2.88;;;;;;;9.67;61.71;93656.13;5036345;28;20044;-76
2021/01/07 10:42:03;;;;;;;3.42;3.13;;;;;;;9.63;61.83;93647.22;5047668;28;20072;-76
2021/01/07 10:44:29;;;;;;;3.13;2.80;;;;;;;9.74;61.76;93649.41;5049589;28;20108;-77
2021/01/07 10:46:59;;;;;;;2.97;2.70;;;;;;;9.81;61.82;93649.84;5049626;28;20025;-76
2021/01/07 10:49:28;;;;;;;3.58;2.50;;;;;;;9.88;61.83;93655.53;5053445;28;20111;-76
2021/01/07 10:52:08;;;;;;;3.13;2.13;;;;;;;9.85;60.46;93658.75;5047927;28;20091;-77
2021/01/07 10:54:45;;;;;;;4.03;2.40;;;;;;;9.91;60.12;93647.06;5051035;28;20401;-78
2021/01/07 10:57:34;;;;;;;3.17;2.70;;;;;;;9.91;59.81;93649.69;5052188;28;20037;-76
2021/01/07 11:00:22;;;;;;;3.97;3.63;;;;;;;9.96;59.71;93646.19;4990433;28;20141;-76
2021/01/07 11:03:10;;;;;;;4.53;3.65;;;;;;;10.05;59.89;93643.69;5023423;28;20460;-77
2021/01/07 11:05:38;;;;;;;3.88;3.58;;;;;;;10.04;60.55;93642.09;5034341;28;20047;-77
2021/01/07 11:08:22;;;;;;;7.72;4.50;;;;;;;10.06;61.03;93645.25;5028861;28;20501;-77
2021/01/07 11:10:52;;;;;;;7.95;5.60;;;;;;;10.11;61.14;93639.91;5033982;28;20032;-77
2021/01/07 11:13:26;;;;;;;7.75;6.30;;;;;;;10.09;61.41;93640.19;5027716;28;20040;-77
2021/01/07 11:15:56;;;;;;;10.38;7.50;;;;;;;10.06;61.28;93639.97;5030223;28;20079;-76
2021/01/07 11:18:29;;;;;;;7.03;4.57;;;;;;;10.06;61.26;93639.97;5025481;28;20065;-77
2021/01/07 11:21:00;;;;;;;5.22;4.72;;;;;;;10.05;61.00;93631.28;5043146;28;20041;-76
2021/01/07 11:23:27;;;;;;;5.25;3.53;;;;;;;10.12;60.96;93628.25;5026151;28;20443;-76
2021/01/07 11:25:53;;;;;;;3.58;3.25;;;;;;;9.99;60.59;93622.63;5044978;28;20056;-76
2021/01/07 11:28:19;;;;;;;3.53;3.20;;;;;;;9.98;60.30;93649.31;5033232;28;20529;-76
2021/01/07 11:30:46;;;;;;;3.90;2.72;;;;;;;9.87;60.73;93638.13;5043021;28;20109;-76
2021/01/07 11:33:14;;;;;;;3.60;2.40;;;;;;;9.77;60.41;93626.97;5048115;28;20068;-77
2021/01/07 11:35:43;;;;;;;7.93;4.97;;;;;;;9.83;60.14;93631.06;5039526;28;20045;-77